Time;durP1;ratioP1;P1;durP2;ratioP2;P2;SDS_P1;SDS_P2;PMS_P1;PMS_P2;Temp;Humidity;BMP_temperature;BMP_pressure;BME280_temperature;BME280_humidity;BME280_pressure;Samples;Min_cycle;Max_cycle;Signal;HPM_P1;HPM_P2
2024/01/22 00:01:59;;;;;;;6.10;2.55;;;;;;;17.46;51.18;100544.53;5064222;28;20415;-56
2024/01/22 00:04:25;;;;;;;7.07;2.90;;;;;;;17.44;51.25;100533.03;5072418;28;20031;-53
2024/01/22 00:06:52;;;;;;;6.15;2.70;;;;;;;17.44;51.62;100535.75;5073106;28;20047;-49
2024/01/22 00:09:18;;;;;;;4.80;2.33;;;;;;;17.45;51.28;100526.44;5068864;28;20484;-46
2024/01/22 00:11:43;;;;;;;3.97;2.67;;;;;;;17.45;51.21;100501.78;5070721;28;20060;-46
2024/01/22 00:14:08;;;;;;;5.60;2.55;;;;;;;17.45;51.03;100487.28;5077003;28;20040;-43
2024/01/22 00:16:38;;;;;;;4.43;2.70;;;;;;;17.42;51.54;100507.00;5074005;28;20437;-48
2024/01/22 00:19:03;;;;;;;4.47;2.40;;;;;;;17.44;51.20;100524.00;5075941;28;20077;-56
2024/01/22 00:21:29;;;;;;;3.78;2.45;;;;;;;17.43;51.75;100505.91;5074314;28;20419;-55
2024/01/22 00:23:56;;;;;;;6.78;2.90;;;;;;;17.40;51.80;100482.63;5074227;28;20047;-50
2024/01/22 00:26:21;;;;;;;4.38;2.58;;;;;;;17.37;51.81;100493.34;5084571;28;20024;-48
2024/01/22 00:28:47;;;;;;;4.57;2.47;;;;;;;17.39;51.78;100471.97;5081720;28;20025;-46
2024/01/22 00:31:12;;;;;;;4.57;2.60;;;;;;;17.39;51.53;100482.94;5065272;28;20040;-45
2024/01/22 00:33:38;;;;;;;3.45;2.47;;;;;;;17.37;51.98;100465.94;5070687;28;20274;-51
2024/01/22 00:36:03;;;;;;;5.13;2.63;;;;;;;17.36;51.90;100464.31;5075795;28;20048;-54
2024/01/22 00:38:29;;;;;;;4.80;2.83;;;;;;;17.36;52.19;100469.78;5072324;28;20455;-53
2024/01/22 00:40:54;;;;;;;4.22;2.53;;;;;;;17.35;52.01;100488.16;5072833;28;20028;-55
2024/01/22 00:43:19;;;;;;;5.00;2.45;;;;;;;17.34;52.04;100467.31;5071964;28;20086;-54
2024/01/22 00:45:45;;;;;;;5.85;2.58;;;;;;;17.35;52.06;100481.84;5085203;28;20472;-55
2024/01/22 00:48:10;;;;;;;5.47;2.65;;;;;;;17.34;52.34;100461.84;5084878;28;20035;-52
2024/01/22 00:50:36;;;;;;;4.03;2.45;;;;;;;17.33;52.38;100449.25;5077141;28;20388;-44
2024/01/22 00:53:01;;;;;;;3.70;2.20;;;;;;;17.35;52.50;100448.97;5072841;28;20083;-45
2024/01/22 00:55:26;;;;;;;5.03;2.60;;;;;;;17.35;52.59;100460.75;5052081;28;20024;-46
2024/01/22 00:57:52;;;;;;;5.00;2.30;;;;;;;17.33;52.43;100450.06;5076816;28;20036;-45
2024/01/22 01:00:17;;;;;;;3.05;2.08;;;;;;;17.35;52.36;100459.91;5078184;28;20509;-43
2024/01/22 01:02:43;;;;;;;4.05;2.30;;;;;;;17.34;52.53;100453.63;5070458;28;20220;-48
2024/01/22 01:05:08;;;;;;;4.97;2.20;;;;;;;17.33;52.53;100439.09;5072186;28;20057;-46
2024/01/22 01:07:35;;;;;;;5.25;2.25;;;;;;;17.33;52.75;100419.13;5070352;28;21055;-45
2024/01/22 01:10:00;;;;;;;4.97;2.35;;;;;;;17.33;52.52;100406.22;5061663;28;20028;-45
2024/01/22 01:12:26;;;;;;;4.10;2.40;;;;;;;17.32;52.81;100398.31;5078928;28;20035;-46
2024/01/22 01:14:51;;;;;;;4.90;2.20;;;;;;;17.31;52.89;100397.50;5073181;28;20457;-43
2024/01/22 01:17:17;;;;;;;4.80;2.30;;;;;;;17.31;52.90;100391.19;5073559;28;20477;-46
2024/01/22 01:19:42;;;;;;;4.95;2.40;;;;;;;17.29;53.16;100387.94;5077090;28;20134;-47
2024/01/22 01:22:07;;;;;;;3.72;2.30;;;;;;;17.28;52.95;100378.88;5075862;28;20396;-44
2024/01/22 01:24:33;;;;;;;3.55;2.10;;;;;;;17.28;53.25;100370.66;5072612;28;20039;-51
2024/01/22 01:26:58;;;;;;;4.93;2.67;;;;;;;17.27;53.16;100385.44;5078770;28;20032;-45
2024/01/22 01:29:23;;;;;;;3.47;2.20;;;;;;;17.27;53.17;100349.84;5067036;28;20063;-45
2024/01/22 01:31:49;;;;;;;4.43;2.20;;;;;;;17.28;53.09;100356.16;5058204;28;20402;-46
2024/01/22 01:34:14;;;;;;;4.38;1.92;;;;;;;17.27;53.28;100355.31;5067319;28;20036;-47
2024/01/22 01:36:40;;;;;;;4.35;1.95;;;;;;;17.26;53.57;100334.50;5068321;28;20021;-50
2024/01/22 01:39:05;;;;;;;2.65;1.80;;;;;;;17.26;53.49;100334.50;5065768;28;20029;-52
2024/01/22 01:41:31;;;;;;;3.72;1.80;;;;;;;17.27;54.05;100343.56;5075021;28;20115;-57
2024/01/22 01:43:56;;;;;;;4.28;2.13;;;;;;;17.27;53.67;100333.41;5070693;28;20390;-56
2024/01/22 01:46:22;;;;;;;4.57;2.08;;;;;;;17.27;53.71;100306.03;5077889;28;20035;-56
2024/01/22 01:48:48;;;;;;;4.93;2.00;;;;;;;17.24;54.03;100301.13;5053765;28;20024;-57
2024/01/22 01:51:15;;;;;;;3.53;2.00;;;;;;;17.23;54.06;100290.44;5066584;28;20032;-56
2024/01/22 01:53:40;;;;;;;3.88;2.30;;;;;;;17.23;54.07;100288.53;5072161;28;20051;-55
2024/01/22 01:56:06;;;;;;;3.58;1.95;;;;;;;17.23;54.25;100293.19;5078075;28;20032;-56
2024/01/22 01:58:32;;;;;;;7.45;2.13;;;;;;;17.23;54.48;100283.06;5052185;28;20033;-56
2024/01/22 02:00:58;;;;;;;4.88;2.20;;;;;;;17.22;54.47;100286.91;5054561;28;20047;-52
2024/01/22 02:03:24;;;;;;;2.95;1.80;;;;;;;17.21;54.51;100276.22;5074121;28;20031;-55
2024/01/22 02:05:49;;;;;;;3.85;1.70;;;;;;;17.20;54.50;100249.94;5070696;28;20032;-57
2024/01/22 02:08:15;;;;;;;4.00;1.90;;;;;;;17.21;54.56;100235.97;5047862;28;20040;-56
2024/01/22 02:10:40;;;;;;;4.35;1.90;;;;;;;17.21;54.62;100221.47;5058299;28;20114;-56
2024/01/22 02:13:09;;;;;;;3.50;2.10;;;;;;;17.22;54.58;100259.50;5072982;28;20089;-57
2024/01/22 02:15:34;;;;;;;2.80;1.80;;;;;;;17.21;54.90;100259.81;5068771;28;20020;-53
2024/01/22 02:18:00;;;;;;;2.70;1.75;;;;;;;17.20;55.05;100225.31;5066243;28;20115;-55
2024/01/22 02:20:25;;;;;;;4.47;1.83;;;;;;;17.15;55.55;100245.31;5067696;28;20459;-55
2024/01/22 02:22:51;;;;;;;2.63;1.63;;;;;;;17.17;55.27;100245.88;5071221;28;20352;-54
2024/01/22 02:25:16;;;;;;;4.65;1.85;;;;;;;17.19;55.38;100235.44;5068931;28;20062;-54
2024/01/22 02:27:41;;;;;;;3.63;1.75;;;;;;;17.21;55.13;100222.25;5053712;28;20028;-55
2024/01/22 02:30:07;;;;;;;5.95;1.63;;;;;;;17.20;55.27;100217.09;5076398;28;20021;-56
2024/01/22 02:32:33;;;;;;;4.90;1.60;;;;;;;17.19;55.70;100205.31;5075465;28;20028;-56
2024/01/22 02:34:58;;;;;;;4.47;2.08;;;;;;;17.19;55.38;100199.84;5076811;28;20528;-51
2024/01/22 02:37:23;;;;;;;4.63;1.77;;;;;;;17.17;55.77;100211.06;5065435;28;20060;-44
2024/01/22 02:39:49;;;;;;;4.88;1.80;;;;;;;17.17;55.72;100180.94;5074315;28;20427;-49
2024/01/22 02:42:14;;;;;;;2.97;1.52;;;;;;;17.18;55.47;100214.63;5069756;28;20025;-55
2024/01/22 02:44:41;;;;;;;2.60;1.70;;;;;;;17.18;55.79;100181.78;5066619;28;20012;-56
2024/01/22 02:47:06;;;;;;;3.33;1.52;;;;;;;17.18;55.93;100190.00;5077487;28;20181;-55
2024/01/22 02:49:33;;;;;;;3.22;1.65;;;;;;;17.19;55.69;100199.00;5068703;28;20073;-54
2024/01/22 02:51:58;;;;;;;2.35;1.60;;;;;;;17.16;56.05;100186.72;5066217;28;20041;-56
2024/01/22 02:54:23;;;;;;;3.00;1.50;;;;;;;17.14;56.15;100170.59;5052199;28;20024;-55
2024/01/22 02:56:49;;;;;;;3.30;1.60;;;;;;;17.14;56.19;100177.97;5071416;28;20059;-55
2024/01/22 02:59:15;;;;;;;2.80;1.73;;;;;;;17.17;55.98;100178.22;5076649;28;20058;-57
2024/01/22 03:01:41;;;;;;;2.05;1.65;;;;;;;17.18;56.28;100146.19;5079245;28;20036;-43
2024/01/22 03:04:06;;;;;;;2.50;1.60;;;;;;;17.19;56.36;100157.94;5045163;28;20535;-46
2024/01/22 03:06:32;;;;;;;2.28;1.60;;;;;;;17.18;56.40;100173.56;5078680;28;20032;-55
2024/01/22 03:08:57;;;;;;;2.00;1.40;;;;;;;17.17;56.50;100160.97;5077410;28;20024;-46
2024/01/22 03:11:23;;;;;;;2.40;1.60;;;;;;;17.16;56.76;100162.88;5074413;28;20024;-49
2024/01/22 03:13:48;;;;;;;2.10;1.40;;;;;;;17.16;56.97;100164.81;5071632;28;20063;-49
2024/01/22 03:16:14;;;;;;;2.05;1.50;;;;;;;17.16;56.88;100151.94;5070418;28;20185;-46
2024/01/22 03:18:39;;;;;;;2.47;1.40;;;;;;;17.13;57.12;100135.25;5074101;28;20036;-48
2024/01/22 03:21:05;;;;;;;4.38;1.40;;;;;;;17.14;57.37;100172.47;5078405;28;20050;-45
2024/01/22 03:23:30;;;;;;;2.92;1.63;;;;;;;17.13;57.39;100138.81;5056702;28;20461;-46
2024/01/22 03:25:56;;;;;;;2.20;1.38;;;;;;;17.12;57.44;100144.59;5054416;28;20059;-46
2024/01/22 03:28:22;;;;;;;5.60;1.48;;;;;;;17.14;57.34;100123.19;5059294;28;20478;-48
2024/01/22 03:30:47;;;;;;;2.65;1.25;;;;;;;17.13;57.55;100158.00;5081368;28;20488;-49
2024/01/22 03:33:12;;;;;;;2.92;1.30;;;;;;;17.12;57.43;100152.81;5056326;28;20024;-46
2024/01/22 03:35:38;;;;;;;1.92;1.35;;;;;;;17.09;57.81;100143.25;5060763;28;20059;-47
2024/01/22 03:38:03;;;;;;;2.30;1.48;;;;;;;17.11;57.90;100153.91;5077406;28;20681;-47
2024/01/22 03:40:29;;;;;;;1.50;1.30;;;;;;;17.10;57.84;100147.59;5068857;28;20387;-48
2024/01/22 03:42:54;;;;;;;1.60;1.10;;;;;;;17.10;57.74;100147.59;5074105;28;20017;-58
2024/01/22 03:45:19;;;;;;;1.38;1.17;;;;;;;17.09;58.09;100135.03;5076790;28;20027;-56
2024/01/22 03:47:45;;;;;;;1.63;1.13;;;;;;;17.08;58.41;100130.66;5074275;28;20066;-55
2024/01/22 03:50:10;;;;;;;3.47;1.27;;;;;;;17.09;57.96;100148.72;5069080;28;20028;-56
2024/01/22 03:52:36;;;;;;;1.88;1.30;;;;;;;17.10;58.27;100133.09;5075584;28;20047;-56
2024/01/22 03:55:02;;;;;;;1.30;1.20;;;;;;;17.09;58.14;100135.03;5066184;28;20064;-55
2024/01/22 03:57:27;;;;;;;2.30;1.33;;;;;;;17.10;58.33;100133.09;5079595;28;20032;-43
2024/01/22 03:59:53;;;;;;;1.77;1.38;;;;;;;17.07;58.63;100134.50;5077179;28;20027;-51
2024/01/22 04:02:18;;;;;;;2.53;1.25;;;;;;;17.09;58.53;100136.94;5062355;28;20458;-47
2024/01/22 04:04:43;;;;;;;2.72;1.20;;;;;;;17.05;59.72;100135.91;5071553;28;20047;-51
2024/01/22 04:07:09;;;;;;;2.47;1.35;;;;;;;17.05;59.10;100127.69;5058121;28;20032;-56
2024/01/22 04:09:34;;;;;;;1.73;1.10;;;;;;;17.07;58.72;100120.81;5057392;28;20024;-54
2024/01/22 04:11:59;;;;;;;1.20;1.10;;;;;;;17.05;59.45;100127.69;5063874;28;20042;-55
2024/01/22 04:14:25;;;;;;;1.38;1.27;;;;;;;17.01;59.27;100143.88;5078118;28;20063;-55
2024/01/22 04:16:51;;;;;;;1.20;1.10;;;;;;;17.00;59.81;100139.50;5067989;28;20054;-56
2024/01/22 04:19:16;;;;;;;1.33;1.10;;;;;;;17.00;59.91;100140.28;5071588;28;20039;-54
2024/01/22 04:21:45;;;;;;;1.38;1.00;;;;;;;17.00;60.57;100142.22;5076105;28;20016;-56
2024/01/22 04:24:11;;;;;;;1.25;1.00;;;;;;;16.97;60.56;100131.84;5069161;28;20225;-53
2024/01/22 04:26:36;;;;;;;2.85;1.25;;;;;;;17.00;60.71;100139.50;5077640;28;20030;-55
2024/01/22 04:29:01;;;;;;;1.17;1.00;;;;;;;16.99;60.15;100144.16;5049232;28;20496;-57
2024/01/22 04:31:27;;;;;;;2.58;1.13;;;;;;;16.98;60.62;100158.94;5040250;28;20059;-56
2024/01/22 04:33:54;;;;;;;0.90;0.90;;;;;;;16.99;60.43;100154.28;5069194;28;20267;-56
2024/01/22 04:36:19;;;;;;;1.42;0.98;;;;;;;17.00;60.58;100150.44;5066051;28;20028;-56
2024/01/22 04:38:44;;;;;;;2.22;0.98;;;;;;;17.00;60.69;100166.88;5071552;28;20027;-55
2024/01/22 04:41:10;;;;;;;2.42;1.10;;;;;;;16.95;61.78;100148.56;5071850;28;20024;-56
2024/01/22 04:43:36;;;;;;;1.23;1.10;;;;;;;16.96;61.40;100147.44;5072532;28;20077;-54
2024/01/22 04:46:01;;;;;;;1.65;1.25;;;;;;;16.96;61.29;100147.44;5068046;28;20089;-55
2024/01/22 04:48:26;;;;;;;1.20;1.10;;;;;;;16.96;62.03;100163.88;5069455;28;20032;-57
2024/01/22 04:50:52;;;;;;;1.00;0.95;;;;;;;16.96;61.34;100141.97;5075045;28;20024;-54
2024/01/22 04:53:17;;;;;;;1.02;0.90;;;;;;;16.98;61.31;100158.94;5063939;28;20048;-55
2024/01/22 04:55:43;;;;;;;1.55;1.20;;;;;;;16.97;61.71;100129.09;5078316;28;20528;-53
2024/01/22 04:58:08;;;;;;;1.13;0.95;;;;;;;16.98;61.69;100130.72;5066637;28;20086;-56
2024/01/22 05:00:33;;;;;;;1.25;1.00;;;;;;;17.00;61.05;100161.38;5070829;28;20027;-56
2024/01/22 05:03:04;;;;;;;0.90;0.90;;;;;;;17.00;61.48;100150.44;5072385;28;20056;-57
2024/01/22 05:05:29;;;;;;;0.93;0.90;;;;;;;16.98;62.03;100150.72;5068819;28;20048;-55
2024/01/22 05:07:54;;;;;;;1.25;1.00;;;;;;;16.97;62.69;100145.53;5073288;28;20145;-56
2024/01/22 05:10:20;;;;;;;1.75;1.13;;;;;;;17.01;62.30;100152.06;5084232;28;20034;-55
2024/01/22 05:12:45;;;;;;;0.90;0.90;;;;;;;17.06;63.03;100165.72;5082249;28;20032;-55
2024/01/22 05:15:12;;;;;;;1.33;1.20;;;;;;;17.11;62.34;100140.22;5059137;28;20032;-53
2024/01/22 05:17:38;;;;;;;0.80;0.80;;;;;;;17.19;61.57;100168.91;5082992;28;20035;-56
2024/01/22 05:20:04;;;;;;;1.20;1.10;;;;;;;17.24;62.64;100153.25;5080167;28;20035;-55
2024/01/22 05:22:30;;;;;;;2.72;1.20;;;;;;;17.29;62.71;100163.34;5070847;28;20020;-56
2024/01/22 05:24:55;;;;;;;2.20;1.20;;;;;;;17.33;63.07;100148.75;5075362;28;21007;-54
2024/01/22 05:27:20;;;;;;;1.45;1.20;;;;;;;17.41;62.97;100152.81;5076836;28;20405;-55
2024/01/22 05:29:46;;;;;;;1.63;1.10;;;;;;;17.47;63.37;100142.59;5071892;28;20544;-57
2024/01/22 05:32:12;;;;;;;2.10;1.17;;;;;;;17.53;62.71;100160.63;5078452;28;20047;-46
2024/01/22 05:34:37;;;;;;;4.30;1.58;;;;;;;17.59;63.96;100158.66;5059609;28;20028;-45
2024/01/22 05:37:03;;;;;;;3.53;1.30;;;;;;;17.68;63.76;100153.34;5073659;28;20050;-46
2024/01/22 05:39:28;;;;;;;2.67;1.30;;;;;;;17.76;63.32;100166.41;5073317;28;20069;-45
2024/01/22 05:41:54;;;;;;;4.45;1.63;;;;;;;17.84;63.92;100154.81;5081199;28;20051;-44
2024/01/22 05:44:20;;;;;;;7.03;1.80;;;;;;;17.89;63.89;100168.47;5074987;28;20387;-47
2024/01/22 05:46:45;;;;;;;6.15;2.00;;;;;;;17.94;64.22;100162.94;5080188;28;20102;-46
2024/01/22 05:49:11;;;;;;;6.80;2.25;;;;;;;18.01;64.03;100176.28;5082629;28;20086;-50
2024/01/22 05:51:36;;;;;;;8.55;2.42;;;;;;;18.03;64.10;100156.81;5078252;28;20029;-48
2024/01/22 05:54:02;;;;;;;11.05;2.67;;;;;;;18.05;64.31;100180.09;5074910;28;20134;-46
2024/01/22 05:56:28;;;;;;;6.93;2.75;;;;;;;18.03;63.89;100176.00;5080761;28;20031;-47
2024/01/22 05:58:54;;;;;;;9.32;2.58;;;;;;;18.00;64.39;100152.75;5078892;28;20484;-51
2024/01/22 06:01:27;;;;;;;10.98;3.03;;;;;;;17.95;64.64;100170.06;5069513;28;20089;-50
2024/01/22 06:03:53;;;;;;;10.85;3.30;;;;;;;17.93;65.11;100187.88;5076701;28;20266;-44
2024/01/22 06:06:19;;;;;;;12.40;3.15;;;;;;;17.92;64.89;100219.94;5081965;28;20106;-47
2024/01/22 06:08:45;;;;;;;11.68;3.80;;;;;;;17.92;64.85;100208.19;5078191;28;20164;-45
2024/01/22 06:11:11;;;;;;;9.93;3.35;;;;;;;17.93;64.74;100190.63;5081936;28;20114;-43
2024/01/22 06:13:41;;;;;;;11.40;3.65;;;;;;;17.96;64.56;100198.28;5075011;28;20024;-48
2024/01/22 06:16:08;;;;;;;13.25;3.47;;;;;;;17.97;64.22;100191.69;5080476;28;20107;-50
2024/01/22 06:18:34;;;;;;;13.20;3.35;;;;;;;17.96;64.82;100201.84;5071115;28;20035;-45
2024/01/22 06:21:00;;;;;;;13.43;3.72;;;;;;;17.95;64.70;100194.72;5075680;28;20063;-47
2024/01/22 06:23:25;;;;;;;15.95;3.33;;;;;;;17.95;64.46;100215.84;5072418;28;20535;-46
2024/01/22 06:25:51;;;;;;;14.45;3.70;;;;;;;17.92;65.27;100211.72;5079071;28;20028;-44
2024/01/22 06:28:16;;;;;;;15.60;3.70;;;;;;;17.87;65.57;100192.59;5068987;28;20043;-49
2024/01/22 06:30:43;;;;;;;13.82;3.55;;;;;;;17.85;65.27;100208.50;5074818;28;20036;-50
2024/01/22 06:33:09;;;;;;;14.55;4.30;;;;;;;17.83;65.36;100221.72;5070145;28;20044;-45
2024/01/22 06:35:34;;;;;;;20.23;4.68;;;;;;;17.80;65.62;100201.19;5062401;28;20071;-50
2024/01/22 06:37:59;;;;;;;14.40;3.90;;;;;;;17.79;65.60;100212.41;5068028;28;20110;-49
2024/01/22 06:40:25;;;;;;;17.20;4.07;;;;;;;17.77;65.49;100203.69;5070214;28;20028;-47
2024/01/22 06:42:50;;;;;;;16.23;3.97;;;;;;;17.77;65.53;100253.03;5074100;28;20028;-46
2024/01/22 06:45:16;;;;;;;20.63;4.85;;;;;;;17.73;66.36;100219.88;5074613;28;20055;-47
2024/01/22 06:47:42;;;;;;;18.13;4.60;;;;;;;17.70;66.19;100195.00;5081644;28;20084;-51
2024/01/22 06:50:07;;;;;;;17.95;5.05;;;;;;;17.70;66.36;100212.25;5050696;28;20039;-52
2024/01/22 06:52:33;;;;;;;19.70;5.22;;;;;;;17.69;66.23;100221.56;5068512;28;20075;-48
2024/01/22 06:55:00;;;;;;;17.20;4.88;;;;;;;17.69;66.48;100226.22;5069052;28;20564;-49
2024/01/22 06:57:25;;;;;;;17.23;5.13;;;;;;;17.68;66.11;100239.09;5073960;28;20408;-47
2024/01/22 06:59:52;;;;;;;24.13;6.22;;;;;;;17.68;66.62;100219.91;5073288;28;20084;-45
2024/01/22 07:02:18;;;;;;;20.90;5.43;;;;;;;17.69;66.24;100231.72;5064882;28;20028;-48
2024/01/22 07:04:46;;;;;;;24.48;5.63;;;;;;;17.69;66.69;100218.81;5073966;28;20473;-49
2024/01/22 07:07:11;;;;;;;20.52;5.93;;;;;;;17.69;66.82;100227.03;5061392;28;20716;-47
2024/01/22 07:09:37;;;;;;;20.98;5.85;;;;;;;17.71;66.59;100235.00;5058401;28;20024;-44
2024/01/22 07:12:03;;;;;;;20.00;5.35;;;;;;;17.74;66.42;100234.41;5064694;28;20040;-49
2024/01/22 07:14:28;;;;;;;21.40;6.38;;;;;;;17.77;66.68;100244.81;5076770;28;20028;-46
2024/01/22 07:16:54;;;;;;;21.88;5.53;;;;;;;17.76;66.67;100238.47;5077592;28;20028;-50
2024/01/22 07:19:19;;;;;;;20.30;5.72;;;;;;;17.78;66.50;100244.50;5071118;28;20024;-55
2024/01/22 07:21:46;;;;;;;17.88;5.10;;;;;;;17.78;66.81;100255.47;5073115;28;20028;-56
2024/01/22 07:24:11;;;;;;;19.48;5.85;;;;;;;17.80;66.22;100228.59;5058298;28;20103;-55
2024/01/22 07:26:37;;;;;;;28.92;6.95;;;;;;;17.84;66.73;100256.25;5072536;28;20039;-54
2024/01/22 07:29:03;;;;;;;22.38;6.88;;;;;;;17.83;67.05;100248.28;5072045;28;20774;-56
2024/01/22 07:31:29;;;;;;;32.03;6.78;;;;;;;17.80;67.23;100255.16;5053346;28;20551;-53
2024/01/22 07:33:55;;;;;;;26.05;6.45;;;;;;;17.78;67.29;100266.44;5073333;28;20150;-55
2024/01/22 07:36:20;;;;;;;24.42;5.78;;;;;;;17.77;67.94;100262.06;5048396;28;20350;-55
2024/01/22 07:38:47;;;;;;;20.23;6.22;;;;;;;17.75;67.85;100263.44;5080519;28;20103;-55
2024/01/22 07:41:13;;;;;;;25.52;6.25;;;;;;;17.73;67.57;100271.97;5075818;28;20036;-57
2024/01/22 07:43:39;;;;;;;25.23;7.05;;;;;;;17.73;67.55;100276.63;5067959;28;20024;-56
2024/01/22 07:46:04;;;;;;;21.08;5.90;;;;;;;17.70;68.39;100297.19;5071518;28;20046;-55
2024/01/22 07:48:30;;;;;;;22.90;6.10;;;;;;;17.69;67.86;100303.78;5070678;28;20032;-56
2024/01/22 07:50:55;;;;;;;27.77;7.32;;;;;;;17.65;68.50;100302.72;5080430;28;20507;-55
2024/01/22 07:53:20;;;;;;;21.13;6.25;;;;;;;17.65;68.00;100316.44;5076813;28;20071;-57
2024/01/22 07:55:47;;;;;;;23.35;6.80;;;;;;;17.67;68.30;100319.72;5065329;28;20508;-54
2024/01/22 07:58:14;;;;;;;24.90;6.40;;;;;;;17.69;67.90;100333.13;5074512;28;20061;-57
2024/01/22 08:00:40;;;;;;;25.75;6.80;;;;;;;17.70;67.63;100330.09;5074986;28;20024;-57
2024/01/22 08:03:05;;;;;;;24.38;6.55;;;;;;;17.71;67.75;100336.41;5072837;28;20096;-57
2024/01/22 08:05:31;;;;;;;23.48;6.80;;;;;;;17.73;67.60;100342.38;5075405;28;20032;-57
2024/01/22 08:07:56;;;;;;;27.75;6.57;;;;;;;17.72;68.02;100318.81;5069610;28;20063;-56
2024/01/22 08:10:22;;;;;;;25.98;6.25;;;;;;;17.70;68.62;100359.44;5081636;28;20027;-57
2024/01/22 08:12:47;;;;;;;30.08;7.07;;;;;;;17.69;68.25;100353.09;5067365;28;20098;-56
2024/01/22 08:15:14;;;;;;;25.08;6.55;;;;;;;17.70;67.77;100348.47;5064735;28;20028;-56
2024/01/22 08:17:45;;;;;;;28.35;6.80;;;;;;;17.67;68.22;100338.91;5058058;28;20027;-57
2024/01/22 08:20:12;;;;;;;25.35;7.15;;;;;;;17.66;68.27;100356.44;5057439;28;20397;-55
2024/01/22 08:22:37;;;;;;;23.45;6.25;;;;;;;17.63;68.19;100349.59;5074234;28;20024;-56
2024/01/22 08:25:03;;;;;;;26.42;6.70;;;;;;;17.63;68.16;100363.31;5066945;28;20118;-56
2024/01/22 08:27:29;;;;;;;22.38;6.60;;;;;;;17.63;67.46;100368.78;5071266;28;20094;-57
2024/01/22 08:29:54;;;;;;;22.17;6.80;;;;;;;17.67;67.44;100379.16;5067219;28;20040;-55
2024/01/22 08:32:19;;;;;;;24.88;7.15;;;;;;;17.69;67.37;100382.44;5071092;28;20413;-55
2024/01/22 08:34:45;;;;;;;23.17;6.82;;;;;;;17.69;67.06;100387.94;5082914;28;20055;-53
2024/01/22 08:37:10;;;;;;;25.90;6.82;;;;;;;17.69;67.23;100380.50;5063501;28;20043;-55
2024/01/22 08:39:36;;;;;;;28.08;6.93;;;;;;;17.68;67.30;100389.03;5082865;28;20074;-54
2024/01/22 08:42:02;;;;;;;28.30;7.00;;;;;;;17.71;66.76;100393.94;5083170;28;20077;-55
2024/01/22 08:44:27;;;;;;;24.63;7.07;;;;;;;17.72;66.83;100396.41;5076393;28;20524;-55
2024/01/22 08:46:52;;;;;;;24.67;6.93;;;;;;;17.70;66.64;100409.56;5070580;28;20492;-56
2024/01/22 08:49:18;;;;;;;30.58;7.00;;;;;;;17.70;66.37;100417.78;5083520;28;20122;-54
2024/01/22 08:51:43;;;;;;;24.25;7.50;;;;;;;17.69;66.43;100413.41;5084378;28;20036;-54
2024/01/22 08:54:09;;;;;;;26.05;7.70;;;;;;;17.70;66.17;100414.25;5077954;28;20056;-54
2024/01/22 08:56:34;;;;;;;25.17;6.90;;;;;;;17.70;66.17;100422.47;5069450;28;20177;-54
2024/01/22 08:59:00;;;;;;;27.13;6.97;;;;;;;17.70;65.72;100425.19;5075636;28;20040;-56
2024/01/22 09:01:26;;;;;;;23.52;6.75;;;;;;;17.71;65.80;100435.06;5074821;28;20020;-56
2024/01/22 09:03:51;;;;;;;26.70;7.25;;;;;;;17.68;66.07;100438.38;5077885;28;20502;-52
2024/01/22 09:06:16;;;;;;;24.08;7.15;;;;;;;17.64;65.75;100441.69;5076276;28;20020;-56
2024/01/22 09:08:42;;;;;;;26.33;6.90;;;;;;;17.67;65.70;100453.16;5081529;28;20484;-54
2024/01/22 09:11:08;;;;;;;24.42;6.65;;;;;;;17.67;65.59;100458.66;5075498;28;20177;-54
2024/01/22 09:13:33;;;;;;;23.83;6.90;;;;;;;17.64;65.26;100463.59;5079505;28;20040;-54
2024/01/22 09:15:59;;;;;;;26.33;7.20;;;;;;;17.60;65.60;100470.75;5069340;28;20025;-54
2024/01/22 09:18:25;;;;;;;25.35;7.03;;;;;;;17.60;65.26;100480.91;5070348;28;20026;-56
2024/01/22 09:20:52;;;;;;;24.48;6.45;;;;;;;17.55;65.58;100500.91;5081677;28;20016;-46
2024/01/22 09:23:17;;;;;;;24.85;6.65;;;;;;;17.49;65.51;100496.56;5078838;28;20028;-45
2024/01/22 09:25:43;;;;;;;28.05;6.78;;;;;;;17.47;65.50;100502.34;5076794;28;20499;-50
2024/01/22 09:28:08;;;;;;;23.10;6.65;;;;;;;17.49;65.49;100507.53;5075376;28;20397;-47
2024/01/22 09:30:34;;;;;;;25.30;6.25;;;;;;;17.49;65.74;100504.78;5069822;28;20036;-50
2024/01/22 09:32:59;;;;;;;21.05;6.72;;;;;;;17.49;65.67;100507.53;5073308;28;20527;-47
2024/01/22 09:35:25;;;;;;;23.38;6.78;;;;;;;17.43;66.04;100505.91;5081901;28;20020;-49
2024/01/22 09:37:51;;;;;;;19.10;5.45;;;;;;;17.41;65.91;100511.69;5076868;28;20210;-47
2024/01/22 09:40:17;;;;;;;20.40;5.78;;;;;;;17.43;66.22;100514.13;5081843;28;20488;-45
2024/01/22 09:42:43;;;;;;;21.33;6.20;;;;;;;17.46;65.97;100525.34;5073150;28;20586;-49
2024/01/22 09:45:09;;;;;;;20.80;6.20;;;;;;;17.47;65.86;100526.16;5079417;28;20029;-45
2024/01/22 09:47:37;;;;;;;22.27;6.45;;;;;;;17.58;65.98;100535.16;5056862;28;20032;-47
2024/01/22 09:50:04;;;;;;;39.95;7.47;;;;;;;17.73;66.68;100535.09;5070374;28;20028;-50
2024/01/22 09:52:32;;;;;;;30.95;6.82;;;;;;;17.84;66.82;100546.81;5070080;28;20040;-45
2024/01/22 09:54:58;;;;;;;33.63;6.78;;;;;;;17.94;66.81;100544.03;5075800;28;20020;-46
2024/01/22 09:57:26;;;;;;;31.67;6.47;;;;;;;18.01;67.19;100540.97;5066732;28;20035;-47
2024/01/22 09:59:52;;;;;;;41.22;6.72;;;;;;;18.09;67.24;100545.06;5068735;28;20024;-45
2024/01/22 10:02:18;;;;;;;25.40;6.10;;;;;;;18.15;67.34;100549.41;5057189;28;20027;-48
2024/01/22 10:04:44;;;;;;;27.02;5.72;;;;;;;18.23;66.48;100558.94;5071480;28;20024;-47
2024/01/22 10:07:13;;;;;;;21.38;5.38;;;;;;;18.28;65.98;100558.91;5075871;28;20408;-45
2024/01/22 10:09:39;;;;;;;21.45;6.00;;;;;;;18.34;64.89;100560.50;5045988;28;20028;-44
2024/01/22 10:12:05;;;;;;;27.92;5.88;;;;;;;18.41;64.53;100577.44;5071945;28;20039;-46
2024/01/22 10:14:32;;;;;;;18.40;4.90;;;;;;;18.49;63.75;100578.78;5069403;28;20027;-47
2024/01/22 10:17:14;;;;;;;24.38;5.80;;;;;;;18.57;62.73;100571.84;5070071;28;20042;-49
2024/01/22 10:19:40;;;;;;;20.83;4.88;;;;;;;18.62;62.26;100584.72;5062483;28;20040;-47
2024/01/22 10:22:07;;;;;;;16.23;4.90;;;;;;;18.67;61.88;100592.91;5073882;28;20047;-50
2024/01/22 10:24:33;;;;;;;18.70;5.57;;;;;;;18.72;61.73;100598.34;5071056;28;20511;-50
2024/01/22 10:27:17;;;;;;;14.43;4.80;;;;;;;18.79;61.53;100609.03;5064776;28;20032;-45
2024/01/22 10:29:43;;;;;;;17.13;5.07;;;;;;;18.83;61.37;100613.63;5076187;28;20378;-46
2024/01/22 10:32:09;;;;;;;13.98;4.70;;;;;;;18.89;61.27;100606.19;5070818;28;20071;-48
2024/01/22 10:34:50;;;;;;;18.23;5.43;;;;;;;19.01;60.63;100608.56;5071243;28;20028;-46
2024/01/22 10:37:17;;;;;;;19.50;4.75;;;;;;;19.08;60.62;100617.31;5064287;28;20495;-58
2024/01/22 10:39:44;;;;;;;23.75;5.03;;;;;;;19.12;60.11;100612.03;5074476;28;20096;-59
2024/01/22 10:42:16;;;;;;;14.45;4.45;;;;;;;19.15;60.29;100615.00;5060014;28;20023;-61
2024/01/22 10:44:44;;;;;;;18.77;4.63;;;;;;;19.21;60.36;100613.03;5067625;28;20028;-48
2024/01/22 10:47:11;;;;;;;22.67;4.93;;;;;;;19.23;59.65;100630.88;5079335;28;20465;-58
2024/01/22 10:49:36;;;;;;;12.35;4.32;;;;;;;19.27;59.57;100633.03;5078025;28;20122;-58
2024/01/22 10:52:03;;;;;;;13.60;4.28;;;;;;;19.29;59.52;100634.41;5072659;28;20454;-58
2024/01/22 10:54:32;;;;;;;25.05;4.95;;;;;;;19.34;59.50;100661.00;5056365;28;20036;-59
2024/01/22 10:57:03;;;;;;;23.73;6.22;;;;;;;19.40;59.35;100643.34;5074158;28;20340;-60
2024/01/22 10:59:30;;;;;;;20.58;5.93;;;;;;;19.42;59.35;100656.78;5072953;28;20202;-58
2024/01/22 11:01:57;;;;;;;36.30;6.25;;;;;;;19.46;58.93;100653.19;5050460;28;20436;-58
2024/01/22 11:04:27;;;;;;;19.38;5.25;;;;;;;19.50;58.84;100664.41;5052071;28;20039;-55
2024/01/22 11:06:58;;;;;;;18.88;5.07;;;;;;;19.53;58.70;100675.66;5076662;28;20558;-57
2024/01/22 11:09:26;;;;;;;25.40;5.80;;;;;;;19.55;58.65;100676.16;5057099;28;20028;-47
2024/01/22 11:11:52;;;;;;;28.05;6.15;;;;;;;19.60;58.55;100674.47;5070442;28;20012;-47
2024/01/22 11:14:18;;;;;;;20.52;5.50;;;;;;;19.63;58.29;100677.47;5055367;28;20028;-47
2024/01/22 11:16:43;;;;;;;18.80;5.25;;;;;;;19.65;58.04;100668.91;5079423;28;20056;-47